Virginia, Minnesota
Current Conditions -  °F | °C
As of 7:11 AM on Thursday 27 Nov 2014 (Local Time) from KEVM Reporting Station
Light Snow Light Snow  
Wind Chill: -9°   Ceiling: 500
Heat Index: -9°   Visibility: 2.5mi
Dew Point: -15°   Wind: 0mph
Humidity: 77%   Direction: NA
Pressure: 30.42"   Gusts: NA
Location:  47.52°N, 92.53°W
Report Text: KEVM 271311Z AUTO 00000KT 2 1/2SM -SN OVC005 M23/M26 A3042 RMK AO2 VIS 1 1/2V5
Loading
Personal Weather Stations






























Interactive Weather Map New forecast layout! Learn more

10-Day Weather Forecast

Advertisements
Track Severe Weather on mobile